Time;durP1;ratioP1;P1;durP2;ratioP2;P2;SDS_P1;SDS_P2;PMS_P1;PMS_P2;Temp;Humidity;BMP_temperature;BMP_pressure;BME280_temperature;BME280_humidity;BME280_pressure;Samples;Min_cycle;Max_cycle;Signal;HPM_P1;HPM_P2
2021/09/05 00:00:16;;;;;;;;;16.25;15.00;;;;;23.93;100.00;101360.19;5036548;28;45466;-74
2021/09/05 00:02:43;;;;;;;;;13.00;12.75;;;;;23.87;100.00;101350.75;5036663;28;45364;-76
2021/09/05 00:05:09;;;;;;;;;16.00;15.75;;;;;23.90;100.00;101366.56;5036170;28;45585;-75
2021/09/05 00:07:34;;;;;;;;;20.75;17.00;;;;;23.90;100.00;101366.56;5036171;28;45265;-75
2021/09/05 00:10:00;;;;;;;;;18.50;17.25;;;;;23.80;100.00;101354.75;5036372;28;45530;-75
2021/09/05 00:12:27;;;;;;;;;19.00;18.75;;;;;23.82;100.00;101371.53;5036477;28;45415;-74
2021/09/05 00:14:52;;;;;;;;;18.75;15.75;;;;;23.74;100.00;101374.63;5035732;28;47784;-75
2021/09/05 00:17:18;;;;;;;;;21.50;19.00;;;;;23.67;100.00;101370.59;5036394;28;45551;-75
2021/09/05 00:19:43;;;;;;;;;20.00;17.75;;;;;23.67;100.00;101386.59;5036257;28;45429;-75
2021/09/05 00:22:11;;;;;;;;;18.00;17.00;;;;;23.63;100.00;101382.41;5036100;28;45469;-75
2021/09/05 00:24:37;;;;;;;;;15.75;15.75;;;;;23.62;100.00;101379.84;5035544;28;45482;-75
2021/09/05 00:27:03;;;;;;;;;17.00;16.25;;;;;23.43;100.00;101348.88;5037604;28;45720;-76
2021/09/05 00:29:29;;;;;;;;;17.25;16.50;;;;;23.61;100.00;101380.78;5039303;28;45425;-74
2021/09/05 00:31:54;;;;;;;;;17.25;17.00;;;;;23.59;100.00;101377.34;5039465;28;45588;-75
2021/09/05 00:34:20;;;;;;;;;22.00;20.75;;;;;23.51;100.00;101367.94;5039234;28;46122;-75
2021/09/05 00:36:46;;;;;;;;;20.75;18.25;;;;;23.59;100.00;101380.88;5039288;28;45528;-76
2021/09/05 00:39:11;;;;;;;;;19.25;18.25;;;;;23.55;100.00;101370.47;5039433;28;45307;-75
2021/09/05 00:41:37;;;;;;;;;21.50;20.75;;;;;23.57;100.00;101381.91;5039574;28;45261;-76
2021/09/05 00:44:05;;;;;;;;;19.75;18.75;;;;;23.50;100.00;101363.56;5038794;28;46469;-76
2021/09/05 00:46:32;;;;;;;;;18.50;18.25;;;;;23.59;100.00;101372.88;5056346;28;45442;-76
2021/09/05 00:49:01;;;;;;;;;20.75;17.00;;;;;23.56;100.00;101358.84;5059437;28;45438;-76
2021/09/05 00:51:31;;;;;;;;;21.00;18.75;;;;;23.61;100.00;101367.44;5059140;28;45481;-76
2021/09/05 00:54:01;;;;;;;;;21.00;18.00;;;;;23.58;100.00;101357.84;5059016;28;46142;-75
2021/09/05 00:56:33;;;;;;;;;21.00;19.50;;;;;23.57;100.00;101361.44;5058877;28;45542;-75
2021/09/05 00:59:02;;;;;;;;;21.00;19.25;;;;;23.59;100.00;101356.03;5058887;28;45369;-75
2021/09/05 01:01:28;;;;;;;;;18.50;18.00;;;;;23.47;100.00;101347.75;5059228;28;45269;-76
2021/09/05 01:03:53;;;;;;;;;18.00;17.50;;;;;23.56;100.00;101350.84;5057425;28;46581;-76
2021/09/05 01:06:18;;;;;;;;;20.75;19.00;;;;;;;;5058678;28;45526;-75
2021/09/05 01:08:45;;;;;;;;;21.50;20.50;;;;;23.57;100.00;101353.44;5059051;28;45333;-75
2021/09/05 01:11:11;;;;;;;;;18.75;18.75;;;;;23.59;100.00;101369.34;5057706;28;45493;-75
2021/09/05 01:13:37;;;;;;;;;23.00;19.50;;;;;23.51;100.00;101365.28;5040370;28;46458;-75
2021/09/05 01:16:02;;;;;;;;;22.50;20.50;;;;;23.55;100.00;101381.13;5058794;28;45419;-75
2021/09/05 01:18:27;;;;;;;;;21.25;19.75;;;;;23.50;100.00;101382.22;5058807;28;45419;-75
2021/09/05 01:20:53;;;;;;;;;24.00;21.00;;;;;23.49;100.00;101387.63;5059101;28;45285;-75
2021/09/05 01:23:18;;;;;;;;;23.50;21.25;;;;;23.47;100.00;101395.72;5058507;28;46606;-75
2021/09/05 01:25:44;;;;;;;;;24.00;22.50;;;;;23.44;100.00;101403.03;5058518;28;45343;-75
2021/09/05 01:28:11;;;;;;;;;22.00;20.00;;;;;23.43;100.00;101404.00;5058938;28;45317;-76
2021/09/05 01:30:38;;;;;;;;;24.50;21.50;;;;;23.40;100.00;101396.19;5058759;28;45417;-75
2021/09/05 01:33:03;;;;;;;;;25.25;22.75;;;;;23.37;100.00;101397.22;5058596;28;47011;-74
2021/09/05 01:35:29;;;;;;;;;28.00;24.25;;;;;23.35;100.00;101398.25;5058397;28;45466;-75
2021/09/05 01:37:55;;;;;;;;;22.75;22.25;;;;;23.32;100.00;101390.44;5057253;28;45341;-75
2021/09/05 01:40:20;;;;;;;;;24.50;24.00;;;;;23.31;100.00;101397.56;5058870;28;45505;-75
2021/09/05 01:46:07;;;;;;;;;26.50;24.25;;;;;23.26;100.00;101388.97;5057392;28;45670;-74
2021/09/05 01:48:32;;;;;;;;;26.25;22.25;;;;;23.26;100.00;101383.63;5058356;28;45442;-74
2021/09/05 01:50:58;;;;;;;;;23.00;22.25;;;;;23.02;100.00;101342.41;5058704;28;45359;-74
2021/09/05 01:53:23;;;;;;;;;23.25;22.00;;;;;23.25;100.00;101384.56;5058061;28;46626;-75
2021/09/05 02:02:13;;;;;;;;;25.50;23.75;;;;;23.21;100.00;101402.56;5058181;28;45254;-74
2021/09/05 02:04:38;;;;;;;;;25.00;23.50;;;;;23.15;100.00;101392.25;5057902;28;46307;-74
2021/09/05 02:07:04;;;;;;;;;23.50;22.00;;;;;23.15;100.00;101391.38;5058241;28;45297;-75
2021/09/05 02:09:29;;;;;;;;;22.75;22.00;;;;;23.11;100.00;101395.19;5058389;28;45240;-75
2021/09/05 02:11:54;;;;;;;;;27.25;23.00;;;;;23.15;100.00;101400.25;5058484;28;45265;-74
2021/09/05 02:14:20;;;;;;;;;22.25;21.75;;;;;23.12;100.00;101397.75;5057972;28;45460;-75
2021/09/05 02:16:45;;;;;;;;;25.50;23.25;;;;;23.09;100.00;101391.75;5057773;28;45276;-74
2021/09/05 02:19:11;;;;;;;;;23.00;21.00;;;;;23.02;100.00;101387.69;5058000;28;45295;-76
2021/09/05 02:21:36;;;;;;;;;24.00;23.00;;;;;23.03;100.00;101397.38;5056616;28;45422;-75
2021/09/05 02:24:01;;;;;;;;;22.75;21.25;;;;;23.02;100.00;101395.66;5058121;28;45528;-75
2021/09/05 02:26:27;;;;;;;;;22.00;19.75;;;;;23.00;100.00;101392.22;5056366;28;45567;-75
2021/09/05 02:28:52;;;;;;;;;21.00;19.50;;;;;23.04;100.00;101401.75;5056790;28;45389;-75
2021/09/05 02:31:20;;;;;;;;;19.50;18.00;;;;;22.98;100.00;101388.81;5058133;28;45549;-75
2021/09/05 02:33:45;;;;;;;;;22.75;20.75;;;;;22.91;100.00;101380.31;5057192;28;46161;-75
2021/09/05 02:36:10;;;;;;;;;21.25;19.25;;;;;22.99;100.00;101398.50;5057726;28;45364;-75
2021/09/05 02:38:38;;;;;;;;;20.00;19.00;;;;;23.01;100.00;101397.47;5057269;28;45395;-74
2021/09/05 02:41:04;;;;;;;;;19.00;18.75;;;;;22.96;100.00;101390.69;5057175;28;45507;-75
2021/09/05 02:46:51;;;;;;;;;19.00;18.25;;;;;22.98;100.00;101396.78;5055581;28;45488;-76
2021/09/05 02:49:16;;;;;;;;;18.50;17.50;;;;;22.97;100.00;101398.59;5057048;28;45467;-76
2021/09/05 02:51:42;;;;;;;;;21.25;19.00;;;;;22.98;100.00;101394.13;5057079;28;45416;-74
2021/09/05 02:54:08;;;;;;;;;20.00;19.00;;;;;22.98;100.00;101404.78;5057190;28;46199;-76
2021/09/05 02:56:33;;;;;;;;;20.25;18.25;;;;;22.95;100.00;101394.31;5056502;28;45285;-74
2021/09/05 02:58:59;;;;;;;;;21.25;17.75;;;;;22.90;100.00;101392.75;5057108;28;45291;-74
2021/09/05 03:01:24;;;;;;;;;21.00;20.50;;;;;22.99;100.00;101403.84;5057395;28;45313;-75
2021/09/05 03:03:49;;;;;;;;;24.50;19.00;;;;;22.96;100.00;101393.34;5056886;28;45413;-76
2021/09/05 03:06:15;;;;;;;;;19.75;18.25;;;;;22.97;100.00;101397.72;5056606;28;45365;-76
2021/09/05 03:08:44;;;;;;;;;26.50;21.75;;;;;22.89;100.00;101383.06;5056908;28;45364;-76
2021/09/05 03:11:09;;;;;;;;;20.00;18.50;;;;;22.91;100.00;101382.97;5057073;28;45317;-75
2021/09/05 03:16:56;;;;;;;;;22.25;19.50;;;;;22.95;100.00;101399.63;5056519;28;45332;-76
2021/09/05 03:19:22;;;;;;;;;22.50;19.75;;;;;22.95;100.00;101395.16;5056688;28;45367;-75
2021/09/05 03:21:49;;;;;;;;;19.25;17.75;;;;;22.91;100.00;101386.50;5056545;28;45321;-75
2021/09/05 03:24:15;;;;;;;;;20.00;19.25;;;;;22.93;100.00;101391.72;5056362;28;46177;-76
2021/09/05 03:26:40;;;;;;;;;19.25;19.25;;;;;22.93;100.00;101394.38;5056297;28;45375;-75
2021/09/05 03:29:06;;;;;;;;;19.25;18.75;;;;;22.90;100.00;101397.22;5056519;28;45403;-71
2021/09/05 03:31:32;;;;;;;;;22.00;20.50;;;;;22.89;100.00;101393.69;5056607;28;45427;-75
2021/09/05 03:33:57;;;;;;;;;21.00;19.75;;;;;22.89;100.00;101393.69;5056245;28;47567;-75
2021/09/05 03:36:23;;;;;;;;;19.00;18.25;;;;;22.89;100.00;101393.69;5055988;28;45445;-75
2021/09/05 03:38:57;;;;;;;;;23.25;20.00;;;;;22.84;100.00;101387.75;5056490;28;45566;-75
2021/09/05 03:41:22;;;;;;;;;19.50;19.50;;;;;22.89;100.00;101392.84;5056475;28;45379;-75
2021/09/05 03:47:10;;;;;;;;;19.75;18.25;;;;;22.84;100.00;101382.41;5056003;28;45380;-75
2021/09/05 03:49:35;;;;;;;;;18.50;18.50;;;;;22.77;100.00;101373.03;5056373;28;45379;-74
2021/09/05 03:52:01;;;;;;;;;21.50;21.25;;;;;22.81;100.00;101385.25;5056489;28;45518;-75
2021/09/05 03:54:26;;;;;;;;;22.75;20.00;;;;;22.82;100.00;101391.44;5056094;28;45453;-74
2021/09/05 03:56:52;;;;;;;;;21.00;18.75;;;;;22.75;100.00;101382.91;5055984;28;45477;-75
2021/09/05 03:59:17;;;;;;;;;21.00;20.00;;;;;22.75;100.00;101388.22;5054888;28;45369;-75
2021/09/05 04:01:42;;;;;;;;;21.25;20.00;;;;;22.74;100.00;101391.84;5057640;28;45368;-75
2021/09/05 04:04:08;;;;;;;;;21.25;18.50;;;;;22.70;100.00;101389.44;5059360;28;47414;-75
2021/09/05 04:06:33;;;;;;;;;17.75;17.75;;;;;22.70;100.00;101384.09;5059429;28;45357;-71
2021/09/05 04:09:08;;;;;;;;;19.75;19.25;;;;;22.69;100.00;101393.91;5059801;28;45519;-75
2021/09/05 04:11:34;;;;;;;;;19.25;17.50;;;;;22.69;100.00;101390.38;5059457;28;45423;-73
2021/09/05 04:13:59;;;;;;;;;20.75;20.00;;;;;22.67;100.00;101397.59;5059163;28;47181;-75
2021/09/05 04:16:24;;;;;;;;;17.50;17.50;;;;;22.65;100.00;101400.34;5059535;28;45216;-76
2021/09/05 04:18:50;;;;;;;;;20.75;20.00;;;;;22.59;100.00;101393.53;5058538;28;45306;-75
2021/09/05 04:21:19;;;;;;;;;21.75;19.00;;;;;22.56;100.00;101391.03;5059737;28;45404;-75
2021/09/05 04:23:44;;;;;;;;;20.25;19.25;;;;;22.60;100.00;101408.53;5059421;28;46388;-76
2021/09/05 04:26:09;;;;;;;;;21.50;19.75;;;;;22.59;100.00;101396.19;5059523;28;45443;-75
2021/09/05 04:31:57;;;;;;;;;22.50;21.00;;;;;22.37;100.00;101382.31;5059092;28;45451;-76
2021/09/05 04:34:22;;;;;;;;;21.50;18.00;;;;;22.50;100.00;101409.13;5058856;28;47210;-76
2021/09/05 04:36:48;;;;;;;;;22.00;19.00;;;;;22.48;100.00;101406.56;5058797;28;45357;-76
2021/09/05 04:39:13;;;;;;;;;19.75;19.25;;;;;22.48;100.00;101403.91;5057779;28;45430;-76
2021/09/05 04:41:38;;;;;;;;;18.75;17.25;;;;;22.46;100.00;101412.91;5059102;28;45407;-75
2021/09/05 04:47:26;;;;;;;;;22.50;18.75;;;;;22.42;100.00;101427.31;5058392;28;45739;-76
2021/09/05 04:49:54;;;;;;;;;23.25;19.00;;;;;22.39;100.00;101422.13;5057386;28;45887;-73
2021/09/05 04:52:19;;;;;;;;;20.00;19.75;;;;;22.35;100.00;101420.56;5059345;28;45320;-76
2021/09/05 04:54:45;;;;;;;;;18.25;18.00;;;;;22.34;100.00;101416.19;5058849;28;46581;-74
2021/09/05 04:57:10;;;;;;;;;21.00;18.75;;;;;22.31;100.00;101418.09;5058614;28;45348;-76
2021/09/05 04:59:36;;;;;;;;;20.50;18.25;;;;;22.26;100.00;101416.59;5059156;28;45414;-70
2021/09/05 05:02:04;;;;;;;;;17.75;17.00;;;;;22.30;100.00;101435.00;5059230;28;45381;-75
2021/09/05 05:04:35;;;;;;;;;19.00;19.00;;;;;22.31;100.00;101444.69;5058473;28;46344;-75
2021/09/05 05:07:00;;;;;;;;;22.75;18.75;;;;;22.30;100.00;101439.44;5058464;28;45389;-75
2021/09/05 05:09:25;;;;;;;;;18.50;18.00;;;;;22.26;100.00;101436.09;5058580;28;45312;-74
2021/09/05 05:11:51;;;;;;;;;19.75;18.75;;;;;22.22;100.00;101431.03;5058807;28;45543;-74
2021/09/05 05:14:16;;;;;;;;;21.25;18.50;;;;;22.27;100.00;101450.25;5057453;28;46300;-75
2021/09/05 05:16:41;;;;;;;;;20.75;17.75;;;;;22.20;100.00;101447.06;5058309;28;45863;-75
2021/09/05 05:19:07;;;;;;;;;18.50;17.50;;;;;22.28;100.00;101452.84;5058612;28;45617;-74
2021/09/05 05:21:32;;;;;;;;;20.00;18.75;;;;;22.29;100.00;101453.69;5058870;28;45450;-75
2021/09/05 05:23:59;;;;;;;;;19.00;18.75;;;;;22.31;100.00;101459.78;5058062;28;46558;-71
2021/09/05 05:26:26;;;;;;;;;19.50;19.50;;;;;22.33;100.00;101459.72;5058225;28;45725;-74
2021/09/05 05:32:13;;;;;;;;;20.50;19.25;;;;;22.35;100.00;101452.50;5058064;28;45424;-75
2021/09/05 05:34:39;;;;;;;;;21.00;17.75;;;;;22.34;100.00;101458.78;5058071;28;46552;-75
2021/09/05 05:37:04;;;;;;;;;19.50;17.50;;;;;22.33;100.00;101462.38;5058034;28;45323;-74
2021/09/05 05:39:30;;;;;;;;;19.25;18.50;;;;;22.39;100.00;101470.88;5058391;28;45242;-74
2021/09/05 05:41:56;;;;;;;;;19.75;18.75;;;;;22.41;100.00;101468.19;5057757;28;45620;-75
2021/09/05 05:47:44;;;;;;;;;23.25;22.75;;;;;22.40;100.00;101463.75;5057221;28;45443;-73
2021/09/05 05:50:09;;;;;;;;;23.00;20.00;;;;;22.43;100.00;101466.28;5058151;28;45257;-74
2021/09/05 05:52:36;;;;;;;;;20.50;18.25;;;;;22.46;100.00;101471.47;5058345;28;45155;-74
2021/09/05 05:55:01;;;;;;;;;19.25;18.00;;;;;22.46;100.00;101474.13;5057745;28;47307;-75
2021/09/05 05:57:26;;;;;;;;;22.00;18.50;;;;;22.46;100.00;101468.78;5057652;28;45297;-76
2021/09/05 06:00:02;;;;;;;;;19.25;18.25;;;;;22.50;100.00;101483.66;5058074;28;45419;-73
2021/09/05 06:02:27;;;;;;;;;19.50;18.50;;;;;22.56;100.00;101478.84;5058071;28;45293;-75
2021/09/05 06:04:53;;;;;;;;;19.50;17.00;;;;;22.57;100.00;101477.06;5057689;28;46009;-75
2021/09/05 06:07:18;;;;;;;;;19.25;18.75;;;;;22.60;100.00;101484.88;5057477;28;45348;-74
2021/09/05 06:09:43;;;;;;;;;18.25;17.00;;;;;22.65;100.00;101490.00;5057341;28;45504;-75
2021/09/05 06:12:10;;;;;;;;;20.50;18.75;;;;;22.64;100.00;101477.63;5057782;28;45416;-75
2021/09/05 06:14:37;;;;;;;;;17.00;16.50;;;;;22.70;100.00;101491.47;5057286;28;46734;-74
2021/09/05 06:17:04;;;;;;;;;20.50;20.00;;;;;22.73;100.00;101487.78;5057512;28;45685;-72
2021/09/05 06:19:30;;;;;;;;;20.50;20.00;;;;;22.74;100.00;101487.69;5057507;28;45339;-72
2021/09/05 06:21:55;;;;;;;;;19.50;18.00;;;;;22.79;100.00;101498.09;5056453;28;45384;-74
2021/09/05 06:24:21;;;;;;;;;18.50;17.50;;;;;22.79;100.00;101496.28;5056475;28;46433;-74
2021/09/05 06:26:46;;;;;;;;;21.75;18.25;;;;;22.83;100.00;101505.84;5057674;28;45409;-73
2021/09/05 06:32:33;;;;;;;;;19.75;17.75;;;;;22.75;100.00;101499.19;5057359;28;45400;-72
2021/09/05 06:34:58;;;;;;;;;22.00;21.25;;;;;22.94;100.00;101525.75;5057341;28;46332;-74
2021/09/05 06:37:24;;;;;;;;;21.75;19.25;;;;;22.94;100.00;101526.59;5057467;28;45411;-72
2021/09/05 06:39:52;;;;;;;;;19.25;19.00;;;;;22.94;100.00;101517.75;5057032;28;45333;-73
2021/09/05 06:42:21;;;;;;;;;18.75;17.00;;;;;23.03;100.00;101531.44;5056753;28;45513;-73
2021/09/05 06:44:46;;;;;;;;;19.00;18.00;;;;;23.03;100.00;101531.44;5057297;28;45516;-72
2021/09/05 06:47:11;;;;;;;;;20.00;17.25;;;;;23.10;100.00;101537.31;5056891;28;45528;-73
2021/09/05 06:49:37;;;;;;;;;20.50;19.25;;;;;23.15;100.00;101543.25;5057470;28;45327;-72
2021/09/05 06:52:03;;;;;;;;;19.25;18.50;;;;;23.20;100.00;101543.84;5057292;28;45514;-73
2021/09/05 06:54:28;;;;;;;;;19.25;17.00;;;;;23.18;100.00;101535.09;5056652;28;46412;-74
2021/09/05 06:56:54;;;;;;;;;20.00;19.50;;;;;23.30;100.00;101542.41;5057241;28;45348;-73
2021/09/05 07:02:41;;;;;;;;;17.25;17.25;;;;;23.31;100.00;101532.59;5056997;28;45433;-73
2021/09/05 07:05:07;;;;;;;;;18.75;18.25;;;;;23.46;100.00;101545.94;5056580;28;46898;-67
2021/09/05 07:07:32;;;;;;;;;23.25;21.75;;;;;23.59;100.00;101553.31;5056684;28;45427;-73
2021/09/05 07:09:57;;;;;;;;;19.25;18.00;;;;;23.62;100.00;101553.13;5056728;28;45367;-74
2021/09/05 07:12:23;;;;;;;;;17.00;15.50;;;;;23.71;100.00;101553.47;5057230;28;45506;-73
2021/09/05 07:18:10;;;;;;;;;18.75;17.75;;;;;23.85;100.00;101551.84;5056761;28;45448;-73
2021/09/05 07:20:35;;;;;;;;;21.00;18.75;;;;;23.90;100.00;101549.75;5056915;28;45389;-73
2021/09/05 07:23:03;;;;;;;;;21.25;19.00;;;;;23.97;100.00;101548.47;5056650;28;45473;-75
2021/09/05 07:25:30;;;;;;;;;21.00;19.50;;;;;24.05;100.00;101555.09;5055467;28;45332;-74
2021/09/05 07:27:55;;;;;;;;;20.25;19.75;;;;;24.11;100.00;101560.06;5056311;28;45269;-74
2021/09/05 07:30:21;;;;;;;;;16.25;16.25;;;;;24.17;100.00;101558.84;5057263;28;45285;-76
2021/09/05 07:32:46;;;;;;;;;20.50;18.00;;;;;24.23;100.00;101558.50;5056592;28;45458;-76
2021/09/05 07:35:12;;;;;;;;;19.50;17.75;;;;;24.25;100.00;101555.75;5056419;28;45483;-76
2021/09/05 07:37:44;;;;;;;;;21.00;20.50;;;;;24.21;100.00;101548.84;5058954;28;45329;-75
2021/09/05 07:40:10;;;;;;;;;23.00;18.50;;;;;24.33;100.00;101565.06;5060279;28;45390;-74
2021/09/05 07:42:36;;;;;;;;;18.25;17.75;;;;;24.40;100.00;101569.06;5060369;28;45305;-75
2021/09/05 07:48:23;;;;;;;;;20.25;18.00;;;;;24.63;100.00;101577.53;5058552;28;45646;-76
2021/09/05 07:50:48;;;;;;;;;19.25;19.25;;;;;24.81;100.00;101581.78;5060066;28;45380;-76
2021/09/05 07:53:13;;;;;;;;;20.75;20.00;;;;;24.92;100.00;101583.81;5075809;28;45568;-75
2021/09/05 07:55:39;;;;;;;;;27.25;24.25;;;;;25.09;100.00;101585.47;5059611;28;47324;-76
2021/09/05 07:58:07;;;;;;;;;28.25;26.50;;;;;25.23;100.00;101582.81;5059406;28;45321;-72
2021/09/05 08:00:33;;;;;;;;;23.00;21.00;;;;;25.40;100.00;101595.13;5059964;28;45277;-75
2021/09/05 08:03:01;;;;;;;;;19.50;18.50;;;;;25.51;100.00;101588.13;5059888;28;45378;-75
2021/09/05 08:05:29;;;;;;;;;19.75;18.25;;;;;25.77;100.00;101594.53;5059177;28;45571;-74
2021/09/05 08:07:54;;;;;;;;;21.50;19.00;;;;;25.92;100.00;101582.84;5059697;28;45447;-76
2021/09/05 08:10:20;;;;;;;;;21.00;19.75;;;;;26.18;100.00;101599.00;5059781;28;45380;-75
2021/09/05 08:12:46;;;;;;;;;21.00;20.75;;;;;26.18;100.00;101594.50;5059752;28;45283;-75
2021/09/05 08:18:37;;;;;;;;;21.75;19.00;;;;;26.18;100.00;101605.22;5059352;28;45337;-76
2021/09/05 08:21:08;;;;;;;;;20.75;19.75;;;;;26.15;100.00;101602.75;5059685;28;45357;-76
2021/09/05 08:23:35;;;;;;;;;21.50;20.00;;;;;26.22;100.00;101611.22;5059757;28;45419;-79
2021/09/05 08:26:01;;;;;;;;;18.50;18.25;;;;;26.27;100.00;101601.09;5059970;28;46352;-77
2021/09/05 08:28:26;;;;;;;;;22.50;20.50;;;;;26.32;100.00;101607.00;5059394;28;45697;-72
2021/09/05 08:30:52;;;;;;;;;21.75;20.25;;;;;26.43;100.00;101609.81;5041123;28;45350;-80
2021/09/05 08:33:18;;;;;;;;;26.00;23.50;;;;;26.50;100.00;101611.16;5059731;28;45391;-75
2021/09/05 08:35:51;;;;;;;;;34.50;31.75;;;;;26.57;100.00;101616.09;5058966;28;45530;-75
2021/09/05 08:38:16;;;;;;;;;27.75;27.50;;;;;26.57;100.00;101619.63;5058991;28;45626;-76
2021/09/05 08:40:49;;;;;;;;;29.75;27.50;;;;;26.63;100.00;101615.66;5059100;28;45357;-75
2021/09/05 08:43:20;;;;;;;;;26.50;24.75;;;;;26.66;100.00;101615.44;5059192;28;45571;-77
2021/09/05 08:45:48;;;;;;;;;24.00;22.00;;;;;26.77;100.00;101615.59;5058718;28;47232;-77
2021/09/05 08:48:16;;;;;;;;;16.50;16.50;;;;;26.88;100.00;101613.03;5058154;28;45444;-74
2021/09/05 08:50:42;;;;;;;;;21.00;20.00;;;;;27.04;100.00;101619.09;5058950;28;45248;-75
2021/09/05 08:53:08;;;;;;;;;21.25;20.50;;;;;27.27;100.00;101620.16;5059107;28;45356;-75
2021/09/05 08:55:34;;;;;;;;;22.75;20.75;;;;;27.67;100.00;101614.69;5058664;28;46294;-72
2021/09/05 08:57:59;;;;;;;;;27.25;22.25;;;;;28.15;100.00;101620.09;5058010;28;45473;-75
2021/09/05 09:03:47;;;;;;;;;20.75;19.50;;;;;29.14;100.00;101618.78;5058780;28;45303;-74
2021/09/05 09:06:20;;;;;;;;;24.25;22.75;;;;;29.42;100.00;101608.53;5058174;28;46557;-75
2021/09/05 09:09:01;;;;;;;;;53.75;44.50;;;;;29.83;100.00;101619.53;5058578;28;45306;-75
2021/09/05 09:11:26;;;;;;;;;24.75;22.75;;;;;30.25;100.00;101618.84;5058701;28;45415;-73
2021/09/05 09:13:56;;;;;;;;;24.00;21.50;;;;;30.72;100.00;101626.50;5058539;28;45363;-73
2021/09/05 09:16:33;;;;;;;;;20.75;20.75;;;;;31.19;100.00;101635.06;5058181;28;46281;-73
2021/09/05 09:18:58;;;;;;;;;24.50;23.25;;;;;31.69;100.00;101621.69;5058167;28;45300;-73
2021/09/05 09:21:25;;;;;;;;;19.25;18.75;;;;;32.15;100.00;101620.25;5058382;28;45429;-74
2021/09/05 09:23:50;;;;;;;;;20.25;18.00;;;;;32.53;100.00;101620.28;5058462;28;45342;-72
2021/09/05 09:26:16;;;;;;;;;21.75;21.00;;;;;33.11;100.00;101628.34;5057950;28;46266;-72
2021/09/05 09:28:50;;;;;;;;;26.50;24.00;;;;;33.78;100.00;101627.22;5073631;28;45378;-73
2021/09/05 09:31:21;;;;;;;;;22.00;21.50;;;;;34.48;100.00;101624.78;5058074;28;45381;-73
2021/09/05 09:33:56;;;;;;;;;22.25;21.00;;;;;35.27;100.00;101632.00;5058491;28;45274;-73
2021/09/05 09:36:24;;;;;;;;;21.50;20.00;;;;;36.06;100.00;101628.13;5058082;28;46668;-73
2021/09/05 09:38:58;;;;;;;;;22.00;20.50;;;;;36.76;100.00;101628.53;5058257;28;45361;-74
2021/09/05 09:41:32;;;;;;;;;24.25;24.25;;;;;37.25;98.07;101628.47;5058116;28;45560;-72
2021/09/05 09:43:59;;;;;;;;;21.00;20.50;;;;;37.42;91.88;101634.75;5058144;28;45277;-72
2021/09/05 09:46:27;;;;;;;;;20.75;19.50;;;;;37.33;93.14;101625.75;5056393;28;48185;-72
2021/09/05 09:48:56;;;;;;;;;22.25;20.00;;;;;37.16;94.13;101629.53;5057377;28;45656;-72
2021/09/05 09:51:25;;;;;;;;;22.50;21.75;;;;;36.87;93.77;101630.09;5057877;28;45329;-72
2021/09/05 09:53:52;;;;;;;;;21.00;17.50;;;;;36.57;94.23;101623.44;5058348;28;45355;-73
2021/09/05 09:56:18;;;;;;;;;23.00;22.50;;;;;36.38;94.33;101630.06;5058009;28;46310;-73
2021/09/05 09:58:48;;;;;;;;;20.75;20.50;;;;;36.27;94.22;101617.63;5056583;28;45691;-73
2021/09/05 10:01:17;;;;;;;;;18.50;18.50;;;;;36.39;93.19;101613.56;5057650;28;45385;-72
2021/09/05 10:03:45;;;;;;;;;16.75;16.25;;;;;36.82;92.96;101627.03;5057845;28;45547;-73
2021/09/05 10:06:12;;;;;;;;;22.75;21.00;;;;;37.39;90.32;101619.63;5057171;28;46418;-73
2021/09/05 10:08:42;;;;;;;;;16.25;16.00;;;;;38.12;87.71;101619.25;5057713;28;45518;-72
2021/09/05 10:11:10;;;;;;;;;17.50;16.75;;;;;38.73;84.75;101612.00;5056880;28;45304;-73
2021/09/05 10:13:40;;;;;;;;;21.25;19.00;;;;;39.33;83.34;101624.69;5057808;28;45338;-73
2021/09/05 10:16:07;;;;;;;;;20.25;18.00;;;;;39.96;81.26;101616.91;5057359;28;46589;-73
2021/09/05 10:18:35;;;;;;;;;18.25;18.25;;;;;40.61;79.03;101618.63;5057786;28;45427;-73
2021/09/05 10:21:01;;;;;;;;;20.25;18.50;;;;;41.15;74.80;101616.09;5057789;28;45308;-72
2021/09/05 10:23:32;;;;;;;;;16.25;15.50;;;;;41.67;73.26;101613.88;5057812;28;45376;-72
2021/09/05 10:26:07;;;;;;;;;19.75;19.25;;;;;42.18;71.50;101617.84;5057272;28;45548;-73
2021/09/05 10:28:37;;;;;;;;;18.00;17.00;;;;;42.72;70.06;101615.97;5057108;28;45333;-73
2021/09/05 10:31:11;;;;;;;;;18.50;18.50;;;;;43.40;68.29;101622.00;5057396;28;45891;-73
2021/09/05 10:33:39;;;;;;;;;17.00;15.50;;;;;43.89;67.03;101613.09;5057973;28;45332;-73
2021/09/05 10:36:25;;;;;;;;;18.25;18.00;;;;;44.34;65.03;101620.47;5056981;28;45650;-74
2021/09/05 10:38:53;;;;;;;;;20.25;17.00;;;;;44.66;64.23;101608.34;5056931;28;45644;-74
2021/09/05 10:41:21;;;;;;;;;20.00;17.75;;;;;45.10;62.24;101615.56;5056910;28;45527;-73
2021/09/05 10:43:58;;;;;;;;;16.00;15.50;;;;;45.56;61.26;101607.81;5057373;28;45425;-73
2021/09/05 10:46:34;;;;;;;;;14.00;13.75;;;;;46.16;59.90;101608.69;5056866;28;45598;-73
2021/09/05 10:49:01;;;;;;;;;18.00;17.50;;;;;46.91;56.76;101597.84;5056623;28;45500;-72
2021/09/05 10:51:31;;;;;;;;;14.75;14.50;;;;;47.55;53.62;101607.03;5057315;28;45375;-73
2021/09/05 10:54:03;;;;;;;;;16.25;15.25;;;;;48.14;52.97;101610.34;5056122;28;45520;-72
2021/09/05 10:56:34;;;;;;;;;16.00;15.50;;;;;48.74;52.25;101604.16;5056943;28;46531;-73
2021/09/05 10:59:06;;;;;;;;;17.00;16.00;;;;;49.18;50.30;101601.47;5057223;28;45411;-72
2021/09/05 11:01:35;;;;;;;;;16.00;15.00;;;;;49.40;50.83;101598.69;5056762;28;45419;-73
2021/09/05 11:04:10;;;;;;;;;15.50;15.50;;;;;49.73;48.41;101605.19;5057045;28;45444;-73
2021/09/05 11:07:05;;;;;;;;;18.25;17.75;;;;;50.33;46.89;101606.91;5056617;28;47145;-72
2021/09/05 11:09:31;;;;;;;;;21.25;20.00;;;;;50.79;40.71;101602.50;5056652;28;45387;-72
2021/09/05 11:12:07;;;;;;;;;18.00;16.75;;;;;50.93;43.23;101591.72;5055062;28;45487;-73
2021/09/05 11:14:35;;;;;;;;;15.25;15.25;;;;;51.14;42.26;101599.91;5056855;28;45393;-72
2021/09/05 11:17:06;;;;;;;;;18.00;17.75;;;;;51.36;41.29;101596.97;5056362;28;46519;-72
2021/09/05 11:19:34;;;;;;;;;17.25;16.25;;;;;51.39;41.19;101599.22;5056617;28;45900;-72
2021/09/05 11:22:03;;;;;;;;;14.75;14.00;;;;;51.34;40.44;101588.00;5056516;28;45375;-72
2021/09/05 11:24:29;;;;;;;;;17.75;14.75;;;;;51.14;40.14;101588.78;5056589;28;45554;-73
2021/09/05 11:27:06;;;;;;;;;18.00;17.50;;;;;50.84;40.42;101575.53;5056265;28;46128;-73
2021/09/05 11:29:32;;;;;;;;;14.50;14.50;;;;;50.52;40.05;101583.97;5056161;28;45412;-73
2021/09/05 11:32:08;;;;;;;;;15.50;14.50;;;;;50.46;40.96;101586.97;5056420;28;45463;-73
2021/09/05 11:34:35;;;;;;;;;14.00;14.00;;;;;50.47;40.10;101586.69;5056832;28;45419;-72
2021/09/05 11:37:01;;;;;;;;;14.00;14.00;;;;;50.52;40.25;101583.13;5055922;28;47189;-72
2021/09/05 11:39:27;;;;;;;;;15.00;13.75;;;;;50.47;38.85;101578.34;5055948;28;45495;-72
2021/09/05 11:41:53;;;;;;;;;16.00;16.00;;;;;50.47;39.28;101572.78;5056372;28;45311;-72
2021/09/05 11:44:27;;;;;;;;;15.00;14.50;;;;;50.58;38.53;101587.63;5056317;28;45466;-72
2021/09/05 11:47:07;;;;;;;;;14.25;13.75;;;;;50.60;38.48;101570.66;5056053;28;45883;-72
2021/09/05 11:49:53;;;;;;;;;13.25;12.25;;;;;50.72;38.75;101577.72;5034631;28;45666;-72
2021/09/05 11:52:25;;;;;;;;;16.00;15.00;;;;;50.87;38.67;101576.94;5036109;28;45311;-72
2021/09/05 11:55:10;;;;;;;;;14.00;14.00;;;;;50.83;37.95;101571.09;5036309;28;45446;-72
2021/09/05 11:57:37;;;;;;;;;11.25;11.25;;;;;50.80;38.54;101574.41;5017659;28;46512;-72